sensor_id;sensor_type;location;lat;lon;timestamp;temperature;humidity
20349;DHT22;10332;50.208;18.988;2022-12-29T00:00:21;4.50;57.90
20349;DHT22;10332;50.208;18.988;2022-12-29T00:03:09;4.50;57.30
20349;DHT22;10332;50.208;18.988;2022-12-29T00:05:37;4.40;57.50
20349;DHT22;10332;50.208;18.988;2022-12-29T00:08:04;4.40;57.80
20349;DHT22;10332;50.208;18.988;2022-12-29T00:10:33;4.40;58.30
20349;DHT22;10332;50.208;18.988;2022-12-29T00:13:00;4.30;58.90
20349;DHT22;10332;50.208;18.988;2022-12-29T00:15:46;4.30;58.90
20349;DHT22;10332;50.208;18.988;2022-12-29T00:18:13;4.30;59.20
20349;DHT22;10332;50.208;18.988;2022-12-29T00:20:41;4.30;59.30
20349;DHT22;10332;50.208;18.988;2022-12-29T00:23:27;4.30;59.00
20349;DHT22;10332;50.208;18.988;2022-12-29T00:26:15;4.30;59.90
20349;DHT22;10332;50.208;18.988;2022-12-29T00:29:03;4.30;59.80
20349;DHT22;10332;50.208;18.988;2022-12-29T00:31:49;4.20;60.30
20349;DHT22;10332;50.208;18.988;2022-12-29T00:34:35;4.20;60.60
20349;DHT22;10332;50.208;18.988;2022-12-29T00:37:21;4.20;61.00
20349;DHT22;10332;50.208;18.988;2022-12-29T00:40:09;4.20;61.40
20349;DHT22;10332;50.208;18.988;2022-12-29T00:42:55;4.20;61.50
20349;DHT22;10332;50.208;18.988;2022-12-29T00:45:42;4.20;61.90
20349;DHT22;10332;50.208;18.988;2022-12-29T00:48:09;4.20;61.90
20349;DHT22;10332;50.208;18.988;2022-12-29T00:50:36;4.20;62.50
20349;DHT22;10332;50.208;18.988;2022-12-29T00:53:04;4.20;62.30
20349;DHT22;10332;50.208;18.988;2022-12-29T00:55:31;4.20;62.20
20349;DHT22;10332;50.208;18.988;2022-12-29T00:58:03;4.10;62.70
20349;DHT22;10332;50.208;18.988;2022-12-29T01:00:31;4.10;62.70
20349;DHT22;10332;50.208;18.988;2022-12-29T01:02:58;4.10;63.00
20349;DHT22;10332;50.208;18.988;2022-12-29T01:05:26;4.10;62.10
20349;DHT22;10332;50.208;18.988;2022-12-29T01:07:54;4.10;63.00
20349;DHT22;10332;50.208;18.988;2022-12-29T01:10:21;4.10;63.30
20349;DHT22;10332;50.208;18.988;2022-12-29T01:12:48;4.10;63.40
20349;DHT22;10332;50.208;18.988;2022-12-29T01:15:17;4.10;63.00
20349;DHT22;10332;50.208;18.988;2022-12-29T01:17:45;4.20;63.20
20349;DHT22;10332;50.208;18.988;2022-12-29T01:20:13;4.20;62.20
20349;DHT22;10332;50.208;18.988;2022-12-29T01:22:40;4.20;62.20
20349;DHT22;10332;50.208;18.988;2022-12-29T01:25:09;4.20;61.80
20349;DHT22;10332;50.208;18.988;2022-12-29T01:27:36;4.20;61.70
20349;DHT22;10332;50.208;18.988;2022-12-29T01:30:05;4.30;61.90
20349;DHT22;10332;50.208;18.988;2022-12-29T01:32:33;4.30;61.20
20349;DHT22;10332;50.208;18.988;2022-12-29T01:35:00;4.30;61.70
20349;DHT22;10332;50.208;18.988;2022-12-29T01:37:28;4.30;62.50
20349;DHT22;10332;50.208;18.988;2022-12-29T01:39:55;4.30;62.10
20349;DHT22;10332;50.208;18.988;2022-12-29T01:42:24;4.20;62.50
20349;DHT22;10332;50.208;18.988;2022-12-29T01:44:57;4.20;62.60
20349;DHT22;10332;50.208;18.988;2022-12-29T01:50:35;4.20;63.50
20349;DHT22;10332;50.208;18.988;2022-12-29T01:53:25;4.20;63.00
20349;DHT22;10332;50.208;18.988;2022-12-29T01:55:59;4.20;63.40
20349;DHT22;10332;50.208;18.988;2022-12-29T01:58:34;4.30;63.30
20349;DHT22;10332;50.208;18.988;2022-12-29T02:01:06;4.30;62.70
20349;DHT22;10332;50.208;18.988;2022-12-29T02:03:34;4.40;62.70
20349;DHT22;10332;50.208;18.988;2022-12-29T02:06:22;4.30;63.00
20349;DHT22;10332;50.208;18.988;2022-12-29T02:08:55;4.30;63.70
20349;DHT22;10332;50.208;18.988;2022-12-29T02:11:25;4.30;64.00
20349;DHT22;10332;50.208;18.988;2022-12-29T02:13:56;4.20;63.70
20349;DHT22;10332;50.208;18.988;2022-12-29T02:31:49;4.30;64.60
20349;DHT22;10332;50.208;18.988;2022-12-29T02:37:25;4.30;65.70
20349;DHT22;10332;50.208;18.988;2022-12-29T02:40:17;4.30;66.00
20349;DHT22;10332;50.208;18.988;2022-12-29T02:46:00;4.30;65.10
20349;DHT22;10332;50.208;18.988;2022-12-29T02:48:44;4.30;65.00
20349;DHT22;10332;50.208;18.988;2022-12-29T02:51:25;4.40;65.00
20349;DHT22;10332;50.208;18.988;2022-12-29T02:53:59;4.40;64.60
20349;DHT22;10332;50.208;18.988;2022-12-29T02:56:45;4.40;63.90
20349;DHT22;10332;50.208;18.988;2022-12-29T02:59:12;4.40;63.20
20349;DHT22;10332;50.208;18.988;2022-12-29T03:05:23;4.40;63.20
20349;DHT22;10332;50.208;18.988;2022-12-29T03:08:06;4.40;63.40
20349;DHT22;10332;50.208;18.988;2022-12-29T03:11:09;4.40;64.20
20349;DHT22;10332;50.208;18.988;2022-12-29T03:14:23;4.30;64.80
20349;DHT22;10332;50.208;18.988;2022-12-29T03:17:27;4.30;65.20
20349;DHT22;10332;50.208;18.988;2022-12-29T03:20:08;4.30;65.60
20349;DHT22;10332;50.208;18.988;2022-12-29T03:22:43;4.30;65.60
20349;DHT22;10332;50.208;18.988;2022-12-29T03:25:35;4.30;66.10
20349;DHT22;10332;50.208;18.988;2022-12-29T03:28:13;4.30;66.80
20349;DHT22;10332;50.208;18.988;2022-12-29T03:30:49;4.30;67.20
20349;DHT22;10332;50.208;18.988;2022-12-29T03:33:21;4.30;67.60
20349;DHT22;10332;50.208;18.988;2022-12-29T03:35:55;4.20;68.30
20349;DHT22;10332;50.208;18.988;2022-12-29T03:38:53;4.20;68.40
20349;DHT22;10332;50.208;18.988;2022-12-29T03:41:31;4.20;69.10
20349;DHT22;10332;50.208;18.988;2022-12-29T03:44:00;4.20;69.20
20349;DHT22;10332;50.208;18.988;2022-12-29T03:46:28;4.20;69.50
20349;DHT22;10332;50.208;18.988;2022-12-29T03:48:55;4.10;69.60
20349;DHT22;10332;50.208;18.988;2022-12-29T03:51:23;4.20;69.90
20349;DHT22;10332;50.208;18.988;2022-12-29T03:53:50;4.10;70.20
20349;DHT22;10332;50.208;18.988;2022-12-29T03:56:17;4.20;70.40
20349;DHT22;10332;50.208;18.988;2022-12-29T03:58:45;4.10;70.60
20349;DHT22;10332;50.208;18.988;2022-12-29T04:01:12;4.20;70.50
20349;DHT22;10332;50.208;18.988;2022-12-29T04:03:40;4.10;70.30
20349;DHT22;10332;50.208;18.988;2022-12-29T04:06:08;4.10;70.20
20349;DHT22;10332;50.208;18.988;2022-12-29T04:08:35;4.10;70.50
20349;DHT22;10332;50.208;18.988;2022-12-29T04:11:02;4.10;70.90
20349;DHT22;10332;50.208;18.988;2022-12-29T04:13:30;4.00;69.70
20349;DHT22;10332;50.208;18.988;2022-12-29T04:15:58;4.00;69.90
20349;DHT22;10332;50.208;18.988;2022-12-29T04:18:26;4.00;70.20
20349;DHT22;10332;50.208;18.988;2022-12-29T04:20:53;4.00;70.10
20349;DHT22;10332;50.208;18.988;2022-12-29T04:23:27;4.00;70.10
20349;DHT22;10332;50.208;18.988;2022-12-29T04:25:56;4.00;70.60
20349;DHT22;10332;50.208;18.988;2022-12-29T04:28:23;4.00;71.30
20349;DHT22;10332;50.208;18.988;2022-12-29T04:30:51;4.00;71.60
20349;DHT22;10332;50.208;18.988;2022-12-29T04:33:20;3.90;71.70
20349;DHT22;10332;50.208;18.988;2022-12-29T04:35:48;3.90;71.60
20349;DHT22;10332;50.208;18.988;2022-12-29T04:38:16;3.90;72.20
20349;DHT22;10332;50.208;18.988;2022-12-29T04:40:44;3.90;72.60
20349;DHT22;10332;50.208;18.988;2022-12-29T04:43:13;3.90;72.60
20349;DHT22;10332;50.208;18.988;2022-12-29T04:45:45;3.80;72.10
20349;DHT22;10332;50.208;18.988;2022-12-29T04:48:14;3.90;72.60
20349;DHT22;10332;50.208;18.988;2022-12-29T04:50:42;3.80;72.10
20349;DHT22;10332;50.208;18.988;2022-12-29T04:53:09;3.90;71.80
20349;DHT22;10332;50.208;18.988;2022-12-29T04:55:37;3.90;71.30
20349;DHT22;10332;50.208;18.988;2022-12-29T04:58:05;3.90;71.10
20349;DHT22;10332;50.208;18.988;2022-12-29T05:00:33;3.90;70.90
20349;DHT22;10332;50.208;18.988;2022-12-29T05:03:01;4.00;70.00
20349;DHT22;10332;50.208;18.988;2022-12-29T05:05:29;4.00;69.40
20349;DHT22;10332;50.208;18.988;2022-12-29T05:07:57;4.10;69.40
20349;DHT22;10332;50.208;18.988;2022-12-29T05:10:24;4.10;69.10
20349;DHT22;10332;50.208;18.988;2022-12-29T05:12:52;4.10;68.20
20349;DHT22;10332;50.208;18.988;2022-12-29T05:15:20;4.20;68.20
20349;DHT22;10332;50.208;18.988;2022-12-29T05:17:47;4.20;68.10
20349;DHT22;10332;50.208;18.988;2022-12-29T05:20:15;4.20;68.00
20349;DHT22;10332;50.208;18.988;2022-12-29T05:22:43;4.20;67.70
20349;DHT22;10332;50.208;18.988;2022-12-29T05:25:10;4.20;67.70
20349;DHT22;10332;50.208;18.988;2022-12-29T05:27:38;4.20;68.20
20349;DHT22;10332;50.208;18.988;2022-12-29T05:30:06;4.20;68.40
20349;DHT22;10332;50.208;18.988;2022-12-29T05:32:33;4.10;68.90
20349;DHT22;10332;50.208;18.988;2022-12-29T05:35:01;4.10;69.40
20349;DHT22;10332;50.208;18.988;2022-12-29T05:37:29;4.10;69.90
20349;DHT22;10332;50.208;18.988;2022-12-29T05:39:56;4.10;69.90
20349;DHT22;10332;50.208;18.988;2022-12-29T05:42:24;4.10;70.50
20349;DHT22;10332;50.208;18.988;2022-12-29T05:44:51;4.10;71.10
20349;DHT22;10332;50.208;18.988;2022-12-29T05:47:20;4.10;71.30
20349;DHT22;10332;50.208;18.988;2022-12-29T05:49:48;4.10;71.00
20349;DHT22;10332;50.208;18.988;2022-12-29T05:52:15;4.10;71.10
20349;DHT22;10332;50.208;18.988;2022-12-29T05:54:43;4.10;71.30
20349;DHT22;10332;50.208;18.988;2022-12-29T05:57:10;4.10;71.70
20349;DHT22;10332;50.208;18.988;2022-12-29T05:59:38;4.10;71.50
20349;DHT22;10332;50.208;18.988;2022-12-29T06:02:05;4.20;71.70
20349;DHT22;10332;50.208;18.988;2022-12-29T06:04:33;4.20;71.70
20349;DHT22;10332;50.208;18.988;2022-12-29T06:07:00;4.20;71.80
20349;DHT22;10332;50.208;18.988;2022-12-29T06:09:28;4.20;71.50
20349;DHT22;10332;50.208;18.988;2022-12-29T06:11:55;4.20;71.40
20349;DHT22;10332;50.208;18.988;2022-12-29T06:14:23;4.30;71.10
20349;DHT22;10332;50.208;18.988;2022-12-29T06:16:50;4.30;71.00
20349;DHT22;10332;50.208;18.988;2022-12-29T06:19:18;4.40;70.70
20349;DHT22;10332;50.208;18.988;2022-12-29T06:21:45;4.50;69.90
20349;DHT22;10332;50.208;18.988;2022-12-29T06:24:13;4.50;69.30
20349;DHT22;10332;50.208;18.988;2022-12-29T06:26:40;4.50;69.00
20349;DHT22;10332;50.208;18.988;2022-12-29T06:29:09;4.50;68.70
20349;DHT22;10332;50.208;18.988;2022-12-29T06:31:36;4.60;68.90
20349;DHT22;10332;50.208;18.988;2022-12-29T06:34:04;4.60;68.70
20349;DHT22;10332;50.208;18.988;2022-12-29T06:36:34;4.60;68.60
20349;DHT22;10332;50.208;18.988;2022-12-29T06:39:02;4.60;68.50
20349;DHT22;10332;50.208;18.988;2022-12-29T06:41:29;4.60;68.60
20349;DHT22;10332;50.208;18.988;2022-12-29T06:43:58;4.60;68.00
20349;DHT22;10332;50.208;18.988;2022-12-29T06:46:26;4.60;69.90
20349;DHT22;10332;50.208;18.988;2022-12-29T06:48:53;4.70;70.50
20349;DHT22;10332;50.208;18.988;2022-12-29T06:51:20;4.80;69.60
20349;DHT22;10332;50.208;18.988;2022-12-29T06:53:48;4.80;68.50
20349;DHT22;10332;50.208;18.988;2022-12-29T06:56:16;4.80;67.40
20349;DHT22;10332;50.208;18.988;2022-12-29T06:58:43;4.80;67.50
20349;DHT22;10332;50.208;18.988;2022-12-29T07:01:11;4.90;67.10
20349;DHT22;10332;50.208;18.988;2022-12-29T07:03:41;4.90;66.40
20349;DHT22;10332;50.208;18.988;2022-12-29T07:06:09;4.90;66.50
20349;DHT22;10332;50.208;18.988;2022-12-29T07:08:37;5.00;66.90
20349;DHT22;10332;50.208;18.988;2022-12-29T07:11:05;4.90;67.10
20349;DHT22;10332;50.208;18.988;2022-12-29T07:13:33;4.90;67.70
20349;DHT22;10332;50.208;18.988;2022-12-29T07:16:08;4.90;67.90
20349;DHT22;10332;50.208;18.988;2022-12-29T07:18:36;5.00;68.10
20349;DHT22;10332;50.208;18.988;2022-12-29T07:21:04;5.00;67.90
20349;DHT22;10332;50.208;18.988;2022-12-29T07:23:32;5.00;68.00
20349;DHT22;10332;50.208;18.988;2022-12-29T07:26:08;5.10;67.80
20349;DHT22;10332;50.208;18.988;2022-12-29T07:28:39;5.10;67.60
20349;DHT22;10332;50.208;18.988;2022-12-29T07:31:17;5.10;67.70
20349;DHT22;10332;50.208;18.988;2022-12-29T07:33:46;5.20;67.60
20349;DHT22;10332;50.208;18.988;2022-12-29T07:36:15;5.30;67.80
20349;DHT22;10332;50.208;18.988;2022-12-29T07:38:43;5.30;67.50
20349;DHT22;10332;50.208;18.988;2022-12-29T07:41:11;5.40;67.10
20349;DHT22;10332;50.208;18.988;2022-12-29T07:43:39;5.50;65.90
20349;DHT22;10332;50.208;18.988;2022-12-29T07:46:06;5.60;65.30
20349;DHT22;10332;50.208;18.988;2022-12-29T07:48:56;5.70;64.50
20349;DHT22;10332;50.208;18.988;2022-12-29T07:51:23;5.80;63.00
20349;DHT22;10332;50.208;18.988;2022-12-29T07:53:50;5.90;62.50
20349;DHT22;10332;50.208;18.988;2022-12-29T07:56:18;6.10;61.50
20349;DHT22;10332;50.208;18.988;2022-12-29T07:58:45;6.20;60.80
20349;DHT22;10332;50.208;18.988;2022-12-29T08:01:12;6.30;59.80
20349;DHT22;10332;50.208;18.988;2022-12-29T08:03:40;6.40;59.00
20349;DHT22;10332;50.208;18.988;2022-12-29T08:06:11;6.50;58.60
20349;DHT22;10332;50.208;18.988;2022-12-29T08:08:39;6.70;56.90
20349;DHT22;10332;50.208;18.988;2022-12-29T08:11:06;6.80;55.80
20349;DHT22;10332;50.208;18.988;2022-12-29T08:13:34;7.00;55.00
20349;DHT22;10332;50.208;18.988;2022-12-29T08:16:01;7.00;53.90
20349;DHT22;10332;50.208;18.988;2022-12-29T08:18:29;7.00;54.00
20349;DHT22;10332;50.208;18.988;2022-12-29T08:21:02;7.00;53.80
20349;DHT22;10332;50.208;18.988;2022-12-29T08:23:31;6.90;54.50
20349;DHT22;10332;50.208;18.988;2022-12-29T08:26:00;6.80;55.30
20349;DHT22;10332;50.208;18.988;2022-12-29T08:28:31;6.70;55.70
20349;DHT22;10332;50.208;18.988;2022-12-29T08:31:01;6.70;55.80
20349;DHT22;10332;50.208;18.988;2022-12-29T08:33:30;6.70;56.40
20349;DHT22;10332;50.208;18.988;2022-12-29T08:36:02;6.70;56.40
20349;DHT22;10332;50.208;18.988;2022-12-29T08:38:32;6.60;56.80
20349;DHT22;10332;50.208;18.988;2022-12-29T08:41:00;6.60;57.30
20349;DHT22;10332;50.208;18.988;2022-12-29T08:43:30;6.70;57.40
20349;DHT22;10332;50.208;18.988;2022-12-29T08:45:58;6.80;57.00
20349;DHT22;10332;50.208;18.988;2022-12-29T08:48:27;7.20;55.60
20349;DHT22;10332;50.208;18.988;2022-12-29T08:50:54;8.00;51.00
20349;DHT22;10332;50.208;18.988;2022-12-29T08:53:27;9.00;43.30
20349;DHT22;10332;50.208;18.988;2022-12-29T08:55:59;10.30;35.70
20349;DHT22;10332;50.208;18.988;2022-12-29T08:58:31;11.40;24.40
20349;DHT22;10332;50.208;18.988;2022-12-29T09:00:59;12.20;18.90
20349;DHT22;10332;50.208;18.988;2022-12-29T09:03:27;13.10;8.00
20349;DHT22;10332;50.208;18.988;2022-12-29T09:06:16;14.00;1.00
20349;DHT22;10332;50.208;18.988;2022-12-29T09:08:44;15.10;1.00
20349;DHT22;10332;50.208;18.988;2022-12-29T09:11:16;15.80;1.00
20349;DHT22;10332;50.208;18.988;2022-12-29T09:13:46;16.50;1.00
20349;DHT22;10332;50.208;18.988;2022-12-29T09:16:14;17.20;1.00
20349;DHT22;10332;50.208;18.988;2022-12-29T09:18:43;18.20;1.00
20349;DHT22;10332;50.208;18.988;2022-12-29T09:21:12;19.20;1.00
20349;DHT22;10332;50.208;18.988;2022-12-29T09:23:40;20.10;1.00
20349;DHT22;10332;50.208;18.988;2022-12-29T09:26:08;20.70;1.00
20349;DHT22;10332;50.208;18.988;2022-12-29T09:28:35;21.10;1.00
20349;DHT22;10332;50.208;18.988;2022-12-29T09:31:03;21.50;1.00
20349;DHT22;10332;50.208;18.988;2022-12-29T09:33:31;22.10;1.00
20349;DHT22;10332;50.208;18.988;2022-12-29T09:36:02;22.50;1.00
20349;DHT22;10332;50.208;18.988;2022-12-29T09:38:30;22.90;1.00
20349;DHT22;10332;50.208;18.988;2022-12-29T09:41:19;23.00;1.00
20349;DHT22;10332;50.208;18.988;2022-12-29T09:44:03;23.50;1.00
20349;DHT22;10332;50.208;18.988;2022-12-29T09:46:39;21.40;1.00
20349;DHT22;10332;50.208;18.988;2022-12-29T09:49:43;19.30;1.00
20349;DHT22;10332;50.208;18.988;2022-12-29T09:52:24;17.70;1.00
20349;DHT22;10332;50.208;18.988;2022-12-29T09:55:00;17.90;1.00
20349;DHT22;10332;50.208;18.988;2022-12-29T09:57:49;17.10;1.00
20349;DHT22;10332;50.208;18.988;2022-12-29T10:00:22;15.90;1.00
20349;DHT22;10332;50.208;18.988;2022-12-29T10:02:59;14.60;1.00
20349;DHT22;10332;50.208;18.988;2022-12-29T10:08:37;13.00;1.00
20349;DHT22;10332;50.208;18.988;2022-12-29T10:20:51;15.10;1.00
20349;DHT22;10332;50.208;18.988;2022-12-29T10:23:28;17.60;1.00
20349;DHT22;10332;50.208;18.988;2022-12-29T10:26:01;18.60;1.00
20349;DHT22;10332;50.208;18.988;2022-12-29T10:28:40;20.70;1.00
20349;DHT22;10332;50.208;18.988;2022-12-29T10:31:16;22.90;1.00
20349;DHT22;10332;50.208;18.988;2022-12-29T10:33:57;22.60;1.00
20349;DHT22;10332;50.208;18.988;2022-12-29T10:36:34;21.40;1.00
20349;DHT22;10332;50.208;18.988;2022-12-29T10:39:31;21.20;1.00
20349;DHT22;10332;50.208;18.988;2022-12-29T10:42:25;20.60;1.00
20349;DHT22;10332;50.208;18.988;2022-12-29T10:44:56;20.70;1.00
20349;DHT22;10332;50.208;18.988;2022-12-29T10:47:29;20.70;1.00
20349;DHT22;10332;50.208;18.988;2022-12-29T10:50:05;20.60;1.00
20349;DHT22;10332;50.208;18.988;2022-12-29T10:52:34;21.40;1.00
20349;DHT22;10332;50.208;18.988;2022-12-29T10:55:18;21.80;1.00
20349;DHT22;10332;50.208;18.988;2022-12-29T10:57:49;21.50;1.00
20349;DHT22;10332;50.208;18.988;2022-12-29T11:00:21;21.80;1.00
20349;DHT22;10332;50.208;18.988;2022-12-29T11:03:11;22.10;1.00
20349;DHT22;10332;50.208;18.988;2022-12-29T11:06:11;22.10;1.00
20349;DHT22;10332;50.208;18.988;2022-12-29T11:09:35;19.70;1.00
20349;DHT22;10332;50.208;18.988;2022-12-29T11:11:44;17.80;1.00
20349;DHT22;10332;50.208;18.988;2022-12-29T11:14:21;16.20;1.00
20349;DHT22;10332;50.208;18.988;2022-12-29T11:17:00;15.30;1.00
20349;DHT22;10332;50.208;18.988;2022-12-29T11:19:32;14.60;1.00
20349;DHT22;10332;50.208;18.988;2022-12-29T11:25:05;13.80;1.00
20349;DHT22;10332;50.208;18.988;2022-12-29T11:27:39;13.50;1.00
20349;DHT22;10332;50.208;18.988;2022-12-29T11:30:28;13.30;1.00
20349;DHT22;10332;50.208;18.988;2022-12-29T11:32:57;13.40;1.00
20349;DHT22;10332;50.208;18.988;2022-12-29T11:39:02;13.50;1.00
20349;DHT22;10332;50.208;18.988;2022-12-29T11:41:28;13.60;1.00
20349;DHT22;10332;50.208;18.988;2022-12-29T11:44:00;13.80;1.00
20349;DHT22;10332;50.208;18.988;2022-12-29T11:46:34;13.80;1.00
20349;DHT22;10332;50.208;18.988;2022-12-29T11:49:05;13.80;1.00
20349;DHT22;10332;50.208;18.988;2022-12-29T11:51:44;13.90;1.00
20349;DHT22;10332;50.208;18.988;2022-12-29T11:54:31;14.00;1.00
20349;DHT22;10332;50.208;18.988;2022-12-29T11:57:15;13.90;1.00
20349;DHT22;10332;50.208;18.988;2022-12-29T11:59:52;13.70;1.00
20349;DHT22;10332;50.208;18.988;2022-12-29T12:02:35;13.50;1.00
20349;DHT22;10332;50.208;18.988;2022-12-29T12:08:07;13.20;1.00
20349;DHT22;10332;50.208;18.988;2022-12-29T12:10:58;14.20;1.00
20349;DHT22;10332;50.208;18.988;2022-12-29T12:13:58;14.90;1.00
20349;DHT22;10332;50.208;18.988;2022-12-29T12:16:33;15.10;1.00
20349;DHT22;10332;50.208;18.988;2022-12-29T12:19:33;15.30;1.00
20349;DHT22;10332;50.208;18.988;2022-12-29T12:22:15;15.50;1.00
20349;DHT22;10332;50.208;18.988;2022-12-29T12:24:54;16.10;1.00
20349;DHT22;10332;50.208;18.988;2022-12-29T12:27:31;15.70;1.00
20349;DHT22;10332;50.208;18.988;2022-12-29T12:30:15;15.00;1.00
20349;DHT22;10332;50.208;18.988;2022-12-29T12:38:48;13.60;1.00
20349;DHT22;10332;50.208;18.988;2022-12-29T13:08:47;11.30;26.50
20349;DHT22;10332;50.208;18.988;2022-12-29T13:22:50;15.30;1.00
20349;DHT22;10332;50.208;18.988;2022-12-29T13:26:03;15.30;1.00
20349;DHT22;10332;50.208;18.988;2022-12-29T13:38:08;13.90;1.00
20349;DHT22;10332;50.208;18.988;2022-12-29T13:40:50;13.50;1.00
20349;DHT22;10332;50.208;18.988;2022-12-29T13:43:22;13.10;4.20
20349;DHT22;10332;50.208;18.988;2022-12-29T13:46:03;12.70;8.70
20349;DHT22;10332;50.208;18.988;2022-12-29T13:48:48;12.40;13.10
20349;DHT22;10332;50.208;18.988;2022-12-29T13:51:21;12.10;17.30
20349;DHT22;10332;50.208;18.988;2022-12-29T13:54:01;12.00;20.60
20349;DHT22;10332;50.208;18.988;2022-12-29T14:00:14;11.70;24.10
20349;DHT22;10332;50.208;18.988;2022-12-29T14:02:49;11.50;26.40
20349;DHT22;10332;50.208;18.988;2022-12-29T14:05:32;11.40;27.50
20349;DHT22;10332;50.208;18.988;2022-12-29T14:08:04;11.20;29.00
20349;DHT22;10332;50.208;18.988;2022-12-29T14:10:50;11.00;30.70
20349;DHT22;10332;50.208;18.988;2022-12-29T14:13:21;10.80;33.10
20349;DHT22;10332;50.208;18.988;2022-12-29T14:15:56;10.60;35.70
20349;DHT22;10332;50.208;18.988;2022-12-29T14:18:34;10.50;37.90
20349;DHT22;10332;50.208;18.988;2022-12-29T14:21:17;10.30;39.70
20349;DHT22;10332;50.208;18.988;2022-12-29T14:23:50;10.20;41.80
20349;DHT22;10332;50.208;18.988;2022-12-29T14:30:01;10.00;44.60
20349;DHT22;10332;50.208;18.988;2022-12-29T14:34:53;10.60;39.40
20349;DHT22;10332;50.208;18.988;2022-12-29T14:37:36;10.50;39.70
20349;DHT22;10332;50.208;18.988;2022-12-29T14:42:49;10.00;42.70
20349;DHT22;10332;50.208;18.988;2022-12-29T14:47:51;9.50;45.80
20349;DHT22;10332;50.208;18.988;2022-12-29T14:53:05;9.10;49.60
20349;DHT22;10332;50.208;18.988;2022-12-29T14:58:31;8.80;52.40
20349;DHT22;10332;50.208;18.988;2022-12-29T15:01:26;8.70;53.90
20349;DHT22;10332;50.208;18.988;2022-12-29T15:04:25;8.60;54.60
20349;DHT22;10332;50.208;18.988;2022-12-29T15:06:57;8.50;55.70
20349;DHT22;10332;50.208;18.988;2022-12-29T15:12:45;8.50;56.80
20349;DHT22;10332;50.208;18.988;2022-12-29T15:15:25;8.50;56.90
20349;DHT22;10332;50.208;18.988;2022-12-29T15:17:54;8.50;57.00
20349;DHT22;10332;50.208;18.988;2022-12-29T15:20:25;8.40;57.20
20349;DHT22;10332;50.208;18.988;2022-12-29T15:23:08;8.40;57.40
20349;DHT22;10332;50.208;18.988;2022-12-29T15:28:26;8.40;57.50
20349;DHT22;10332;50.208;18.988;2022-12-29T15:31:05;8.40;57.40
20349;DHT22;10332;50.208;18.988;2022-12-29T15:33:41;8.40;57.50
20349;DHT22;10332;50.208;18.988;2022-12-29T15:36:29;8.40;57.00
20349;DHT22;10332;50.208;18.988;2022-12-29T15:39:29;8.50;56.90
20349;DHT22;10332;50.208;18.988;2022-12-29T15:42:16;8.50;57.30
20349;DHT22;10332;50.208;18.988;2022-12-29T15:45:11;8.50;56.90
20349;DHT22;10332;50.208;18.988;2022-12-29T15:47:43;8.50;57.10
20349;DHT22;10332;50.208;18.988;2022-12-29T15:52:55;8.50;57.00
20349;DHT22;10332;50.208;18.988;2022-12-29T15:55:43;8.40;57.40
20349;DHT22;10332;50.208;18.988;2022-12-29T15:58:21;8.40;57.40
20349;DHT22;10332;50.208;18.988;2022-12-29T16:00:53;8.50;56.70
20349;DHT22;10332;50.208;18.988;2022-12-29T16:03:31;8.40;57.10
20349;DHT22;10332;50.208;18.988;2022-12-29T16:06:37;8.40;57.30
20349;DHT22;10332;50.208;18.988;2022-12-29T16:09:14;8.40;57.40
20349;DHT22;10332;50.208;18.988;2022-12-29T16:11:55;8.40;57.80
20349;DHT22;10332;50.208;18.988;2022-12-29T16:14:51;8.30;58.60
20349;DHT22;10332;50.208;18.988;2022-12-29T16:17:22;8.30;58.80
20349;DHT22;10332;50.208;18.988;2022-12-29T16:25:25;8.30;58.80
20349;DHT22;10332;50.208;18.988;2022-12-29T16:28:02;8.30;59.30
20349;DHT22;10332;50.208;18.988;2022-12-29T16:31:03;8.30;59.70
20349;DHT22;10332;50.208;18.988;2022-12-29T16:39:20;8.20;60.90
20349;DHT22;10332;50.208;18.988;2022-12-29T16:41:50;8.20;61.10
20349;DHT22;10332;50.208;18.988;2022-12-29T16:44:26;8.20;61.20
20349;DHT22;10332;50.208;18.988;2022-12-29T16:49:39;8.20;61.10
20349;DHT22;10332;50.208;18.988;2022-12-29T16:52:32;8.30;61.20
20349;DHT22;10332;50.208;18.988;2022-12-29T16:55:01;8.30;61.50
20349;DHT22;10332;50.208;18.988;2022-12-29T16:57:33;8.20;61.50
20349;DHT22;10332;50.208;18.988;2022-12-29T17:00:06;8.20;61.90
20349;DHT22;10332;50.208;18.988;2022-12-29T17:02:45;8.20;62.30
20349;DHT22;10332;50.208;18.988;2022-12-29T17:05:15;8.20;62.50
20349;DHT22;10332;50.208;18.988;2022-12-29T17:07:45;8.10;62.90
20349;DHT22;10332;50.208;18.988;2022-12-29T17:10:14;8.10;63.40
20349;DHT22;10332;50.208;18.988;2022-12-29T17:12:47;8.10;63.10
20349;DHT22;10332;50.208;18.988;2022-12-29T17:15:25;8.10;63.00
20349;DHT22;10332;50.208;18.988;2022-12-29T17:17:56;8.20;63.10
20349;DHT22;10332;50.208;18.988;2022-12-29T17:20:26;8.10;63.40
20349;DHT22;10332;50.208;18.988;2022-12-29T17:22:57;8.10;63.80
20349;DHT22;10332;50.208;18.988;2022-12-29T17:25:31;8.10;63.90
20349;DHT22;10332;50.208;18.988;2022-12-29T17:28:07;8.10;64.00
20349;DHT22;10332;50.208;18.988;2022-12-29T17:30:48;8.00;64.30
20349;DHT22;10332;50.208;18.988;2022-12-29T17:33:18;8.00;64.60
20349;DHT22;10332;50.208;18.988;2022-12-29T17:35:47;8.00;65.10
20349;DHT22;10332;50.208;18.988;2022-12-29T17:38:33;8.00;65.40
20349;DHT22;10332;50.208;18.988;2022-12-29T17:41:02;7.90;66.80
20349;DHT22;10332;50.208;18.988;2022-12-29T17:43:30;7.90;67.70
20349;DHT22;10332;50.208;18.988;2022-12-29T17:46:05;7.90;67.80
20349;DHT22;10332;50.208;18.988;2022-12-29T17:48:34;7.90;67.80
20349;DHT22;10332;50.208;18.988;2022-12-29T17:51:02;7.90;67.30
20349;DHT22;10332;50.208;18.988;2022-12-29T17:53:30;7.90;68.10
20349;DHT22;10332;50.208;18.988;2022-12-29T17:55:57;7.90;67.90
20349;DHT22;10332;50.208;18.988;2022-12-29T17:58:27;7.90;68.50
20349;DHT22;10332;50.208;18.988;2022-12-29T18:01:00;7.90;68.80
20349;DHT22;10332;50.208;18.988;2022-12-29T18:03:32;7.90;68.90
20349;DHT22;10332;50.208;18.988;2022-12-29T18:06:02;7.90;68.30
20349;DHT22;10332;50.208;18.988;2022-12-29T18:08:35;7.90;68.50
20349;DHT22;10332;50.208;18.988;2022-12-29T18:11:22;7.90;69.20
20349;DHT22;10332;50.208;18.988;2022-12-29T18:13:52;7.80;68.40
20349;DHT22;10332;50.208;18.988;2022-12-29T18:16:21;7.80;68.10
20349;DHT22;10332;50.208;18.988;2022-12-29T18:18:49;7.80;68.20
20349;DHT22;10332;50.208;18.988;2022-12-29T18:21:20;7.80;68.10
20349;DHT22;10332;50.208;18.988;2022-12-29T18:23:49;7.80;68.10
20349;DHT22;10332;50.208;18.988;2022-12-29T18:28:55;7.80;68.10
20349;DHT22;10332;50.208;18.988;2022-12-29T18:31:25;7.90;67.90
20349;DHT22;10332;50.208;18.988;2022-12-29T18:33:56;7.90;67.70
20349;DHT22;10332;50.208;18.988;2022-12-29T18:36:27;8.00;67.60
20349;DHT22;10332;50.208;18.988;2022-12-29T18:38:55;7.90;67.50
20349;DHT22;10332;50.208;18.988;2022-12-29T18:41:25;8.00;67.60